sensor_id;sensor_type;location;lat;lon;timestamp;P1;durP1;ratioP1;P2;durP2;ratioP2
37349;SDS011;23231;52.358;4.926;2023-11-21T00:01:15;32.20;;;15.20;;
37349;SDS011;23231;52.358;4.926;2023-11-21T00:06:17;32.17;;;12.45;;
37349;SDS011;23231;52.358;4.926;2023-11-21T00:11:20;20.48;;;11.52;;
37349;SDS011;23231;52.358;4.926;2023-11-21T00:16:25;30.25;;;11.82;;
37349;SDS011;23231;52.358;4.926;2023-11-21T00:21:32;23.25;;;11.20;;
37349;SDS011;23231;52.358;4.926;2023-11-21T00:26:36;21.30;;;11.15;;
37349;SDS011;23231;52.358;4.926;2023-11-21T00:31:39;21.48;;;11.43;;
37349;SDS011;23231;52.358;4.926;2023-11-21T00:36:43;29.52;;;11.65;;
37349;SDS011;23231;52.358;4.926;2023-11-21T00:41:47;24.42;;;11.95;;
37349;SDS011;23231;52.358;4.926;2023-11-21T00:46:50;24.48;;;11.57;;
37349;SDS011;23231;52.358;4.926;2023-11-21T00:51:52;21.73;;;10.80;;
37349;SDS011;23231;52.358;4.926;2023-11-21T00:56:52;23.98;;;11.02;;
37349;SDS011;23231;52.358;4.926;2023-11-21T01:01:53;22.95;;;10.90;;
37349;SDS011;23231;52.358;4.926;2023-11-21T01:06:57;20.73;;;9.77;;
37349;SDS011;23231;52.358;4.926;2023-11-21T01:12:05;17.48;;;10.02;;
37349;SDS011;23231;52.358;4.926;2023-11-21T01:17:08;18.65;;;9.93;;
37349;SDS011;23231;52.358;4.926;2023-11-21T01:22:12;23.60;;;10.02;;
37349;SDS011;23231;52.358;4.926;2023-11-21T01:27:14;24.80;;;12.18;;
37349;SDS011;23231;52.358;4.926;2023-11-21T01:32:16;16.70;;;9.98;;
37349;SDS011;23231;52.358;4.926;2023-11-21T01:37:21;23.55;;;9.70;;
37349;SDS011;23231;52.358;4.926;2023-11-21T01:42:24;20.98;;;10.27;;
37349;SDS011;23231;52.358;4.926;2023-11-21T01:47:32;19.13;;;9.38;;
37349;SDS011;23231;52.358;4.926;2023-11-21T01:52:36;22.88;;;9.73;;
37349;SDS011;23231;52.358;4.926;2023-11-21T01:57:38;16.90;;;8.73;;
37349;SDS011;23231;52.358;4.926;2023-11-21T02:02:44;17.67;;;8.90;;
37349;SDS011;23231;52.358;4.926;2023-11-21T02:08:07;22.27;;;8.95;;
37349;SDS011;23231;52.358;4.926;2023-11-21T02:13:09;22.75;;;8.50;;
37349;SDS011;23231;52.358;4.926;2023-11-21T02:18:11;25.88;;;9.55;;
37349;SDS011;23231;52.358;4.926;2023-11-21T02:23:14;20.15;;;8.50;;
37349;SDS011;23231;52.358;4.926;2023-11-21T02:28:16;27.25;;;9.80;;
37349;SDS011;23231;52.358;4.926;2023-11-21T02:33:28;18.45;;;8.50;;
37349;SDS011;23231;52.358;4.926;2023-11-21T02:38:34;18.98;;;8.57;;
37349;SDS011;23231;52.358;4.926;2023-11-21T02:43:39;20.25;;;8.20;;
37349;SDS011;23231;52.358;4.926;2023-11-21T02:48:47;20.83;;;9.07;;
37349;SDS011;23231;52.358;4.926;2023-11-21T02:53:50;21.90;;;8.57;;
37349;SDS011;23231;52.358;4.926;2023-11-21T02:58:56;26.60;;;9.35;;
37349;SDS011;23231;52.358;4.926;2023-11-21T03:04:22;18.35;;;9.00;;
37349;SDS011;23231;52.358;4.926;2023-11-21T03:09:32;23.13;;;9.13;;
37349;SDS011;23231;52.358;4.926;2023-11-21T03:14:35;17.77;;;8.15;;
37349;SDS011;23231;52.358;4.926;2023-11-21T03:19:37;19.15;;;8.52;;
37349;SDS011;23231;52.358;4.926;2023-11-21T03:24:41;23.65;;;9.13;;
37349;SDS011;23231;52.358;4.926;2023-11-21T03:29:43;17.98;;;8.57;;
37349;SDS011;23231;52.358;4.926;2023-11-21T03:34:57;18.60;;;7.78;;
37349;SDS011;23231;52.358;4.926;2023-11-21T03:40:08;20.42;;;8.43;;
37349;SDS011;23231;52.358;4.926;2023-11-21T03:45:11;17.92;;;8.20;;
37349;SDS011;23231;52.358;4.926;2023-11-21T03:50:16;17.20;;;8.63;;
37349;SDS011;23231;52.358;4.926;2023-11-21T03:55:19;19.33;;;7.35;;
37349;SDS011;23231;52.358;4.926;2023-11-21T04:00:19;19.30;;;7.68;;
37349;SDS011;23231;52.358;4.926;2023-11-21T04:05:23;18.40;;;8.07;;
37349;SDS011;23231;52.358;4.926;2023-11-21T04:10:28;16.98;;;7.43;;
37349;SDS011;23231;52.358;4.926;2023-11-21T04:15:32;14.45;;;6.38;;
37349;SDS011;23231;52.358;4.926;2023-11-21T04:20:40;13.50;;;6.72;;
37349;SDS011;23231;52.358;4.926;2023-11-21T04:25:41;16.70;;;5.85;;
37349;SDS011;23231;52.358;4.926;2023-11-21T04:30:44;12.23;;;6.63;;
37349;SDS011;23231;52.358;4.926;2023-11-21T04:35:46;13.00;;;6.50;;
37349;SDS011;23231;52.358;4.926;2023-11-21T04:40:48;16.08;;;7.60;;
37349;SDS011;23231;52.358;4.926;2023-11-21T04:45:49;13.15;;;7.18;;
37349;SDS011;23231;52.358;4.926;2023-11-21T04:50:56;15.98;;;7.15;;
37349;SDS011;23231;52.358;4.926;2023-11-21T04:56:06;15.75;;;7.85;;
37349;SDS011;23231;52.358;4.926;2023-11-21T05:01:17;17.77;;;7.82;;
37349;SDS011;23231;52.358;4.926;2023-11-21T05:06:34;16.23;;;7.43;;
37349;SDS011;23231;52.358;4.926;2023-11-21T05:11:42;19.92;;;6.82;;
37349;SDS011;23231;52.358;4.926;2023-11-21T05:16:56;11.07;;;6.18;;
37349;SDS011;23231;52.358;4.926;2023-11-21T05:22:08;12.90;;;6.05;;
37349;SDS011;23231;52.358;4.926;2023-11-21T05:27:18;12.88;;;5.25;;
37349;SDS011;23231;52.358;4.926;2023-11-21T05:32:25;17.23;;;5.50;;
37349;SDS011;23231;52.358;4.926;2023-11-21T05:37:30;13.83;;;5.10;;
37349;SDS011;23231;52.358;4.926;2023-11-21T05:42:41;12.68;;;5.45;;
37349;SDS011;23231;52.358;4.926;2023-11-21T05:47:46;12.40;;;4.43;;
37349;SDS011;23231;52.358;4.926;2023-11-21T05:52:57;12.93;;;4.18;;
37349;SDS011;23231;52.358;4.926;2023-11-21T05:58:09;11.18;;;4.18;;
37349;SDS011;23231;52.358;4.926;2023-11-21T06:03:13;13.02;;;4.18;;
37349;SDS011;23231;52.358;4.926;2023-11-21T06:08:22;13.38;;;4.60;;
37349;SDS011;23231;52.358;4.926;2023-11-21T06:13:27;11.60;;;3.40;;
37349;SDS011;23231;52.358;4.926;2023-11-21T06:18:33;11.50;;;3.95;;
37349;SDS011;23231;52.358;4.926;2023-11-21T06:23:44;12.35;;;3.95;;
37349;SDS011;23231;52.358;4.926;2023-11-21T06:28:59;11.77;;;4.65;;
37349;SDS011;23231;52.358;4.926;2023-11-21T06:34:07;12.85;;;5.60;;
37349;SDS011;23231;52.358;4.926;2023-11-21T06:39:16;16.90;;;5.57;;
37349;SDS011;23231;52.358;4.926;2023-11-21T06:44:27;13.10;;;5.32;;
37349;SDS011;23231;52.358;4.926;2023-11-21T06:49:31;13.93;;;5.75;;
37349;SDS011;23231;52.358;4.926;2023-11-21T06:54:34;16.05;;;6.18;;
37349;SDS011;23231;52.358;4.926;2023-11-21T06:59:38;18.35;;;6.78;;
37349;SDS011;23231;52.358;4.926;2023-11-21T07:04:40;11.70;;;6.07;;
37349;SDS011;23231;52.358;4.926;2023-11-21T07:09:47;16.27;;;6.40;;
37349;SDS011;23231;52.358;4.926;2023-11-21T07:14:49;14.23;;;6.15;;
37349;SDS011;23231;52.358;4.926;2023-11-21T07:19:53;14.80;;;6.47;;
37349;SDS011;23231;52.358;4.926;2023-11-21T07:24:55;17.38;;;7.15;;
37349;SDS011;23231;52.358;4.926;2023-11-21T07:29:59;17.73;;;6.53;;
37349;SDS011;23231;52.358;4.926;2023-11-21T07:35:09;15.98;;;6.88;;
37349;SDS011;23231;52.358;4.926;2023-11-21T07:40:12;18.23;;;7.32;;
37349;SDS011;23231;52.358;4.926;2023-11-21T07:45:18;18.13;;;7.50;;
37349;SDS011;23231;52.358;4.926;2023-11-21T07:50:23;15.20;;;6.27;;
37349;SDS011;23231;52.358;4.926;2023-11-21T07:55:31;15.48;;;6.25;;
37349;SDS011;23231;52.358;4.926;2023-11-21T08:00:52;15.95;;;6.25;;
37349;SDS011;23231;52.358;4.926;2023-11-21T08:06:03;16.67;;;5.90;;
37349;SDS011;23231;52.358;4.926;2023-11-21T08:11:12;14.27;;;5.63;;
37349;SDS011;23231;52.358;4.926;2023-11-21T08:16:17;10.50;;;5.03;;
37349;SDS011;23231;52.358;4.926;2023-11-21T08:21:19;12.68;;;5.60;;
37349;SDS011;23231;52.358;4.926;2023-11-21T08:26:34;11.98;;;5.53;;
37349;SDS011;23231;52.358;4.926;2023-11-21T08:31:38;15.00;;;6.28;;
37349;SDS011;23231;52.358;4.926;2023-11-21T08:36:44;15.38;;;6.07;;
37349;SDS011;23231;52.358;4.926;2023-11-21T08:41:51;13.57;;;5.95;;
37349;SDS011;23231;52.358;4.926;2023-11-21T08:46:53;17.50;;;6.47;;
37349;SDS011;23231;52.358;4.926;2023-11-21T08:51:58;14.90;;;7.30;;
37349;SDS011;23231;52.358;4.926;2023-11-21T08:57:00;17.65;;;7.65;;
37349;SDS011;23231;52.358;4.926;2023-11-21T09:02:05;17.43;;;7.17;;
37349;SDS011;23231;52.358;4.926;2023-11-21T09:07:12;15.85;;;8.13;;
37349;SDS011;23231;52.358;4.926;2023-11-21T09:12:13;21.70;;;8.35;;
37349;SDS011;23231;52.358;4.926;2023-11-21T09:17:21;22.88;;;9.75;;
37349;SDS011;23231;52.358;4.926;2023-11-21T09:22:32;21.75;;;9.88;;
37349;SDS011;23231;52.358;4.926;2023-11-21T09:27:57;25.58;;;9.90;;
37349;SDS011;23231;52.358;4.926;2023-11-21T09:33:09;21.88;;;9.63;;
37349;SDS011;23231;52.358;4.926;2023-11-21T09:38:18;21.98;;;8.82;;
37349;SDS011;23231;52.358;4.926;2023-11-21T09:43:25;19.80;;;8.82;;
37349;SDS011;23231;52.358;4.926;2023-11-21T09:48:28;21.65;;;8.57;;
37349;SDS011;23231;52.358;4.926;2023-11-21T09:53:32;17.52;;;7.75;;
37349;SDS011;23231;52.358;4.926;2023-11-21T09:58:56;20.27;;;8.18;;
37349;SDS011;23231;52.358;4.926;2023-11-21T10:04:07;19.52;;;7.88;;
37349;SDS011;23231;52.358;4.926;2023-11-21T10:09:16;16.80;;;7.30;;
37349;SDS011;23231;52.358;4.926;2023-11-21T10:14:21;16.00;;;6.97;;
37349;SDS011;23231;52.358;4.926;2023-11-21T10:19:29;17.95;;;6.78;;
37349;SDS011;23231;52.358;4.926;2023-11-21T10:24:32;16.77;;;7.20;;
37349;SDS011;23231;52.358;4.926;2023-11-21T10:29:51;17.33;;;7.37;;
37349;SDS011;23231;52.358;4.926;2023-11-21T10:35:05;16.52;;;6.97;;
37349;SDS011;23231;52.358;4.926;2023-11-21T10:40:31;16.02;;;6.72;;
37349;SDS011;23231;52.358;4.926;2023-11-21T10:45:39;18.65;;;8.48;;
37349;SDS011;23231;52.358;4.926;2023-11-21T10:50:47;21.95;;;9.98;;
37349;SDS011;23231;52.358;4.926;2023-11-21T10:55:48;22.85;;;9.65;;
37349;SDS011;23231;52.358;4.926;2023-11-21T11:00:48;21.67;;;8.98;;
37349;SDS011;23231;52.358;4.926;2023-11-21T11:05:50;18.27;;;7.50;;
37349;SDS011;23231;52.358;4.926;2023-11-21T11:10:52;21.35;;;9.10;;
37349;SDS011;23231;52.358;4.926;2023-11-21T11:15:57;21.13;;;9.60;;
37349;SDS011;23231;52.358;4.926;2023-11-21T11:21:26;19.38;;;7.78;;
37349;SDS011;23231;52.358;4.926;2023-11-21T11:31:49;14.75;;;7.25;;
37349;SDS011;23231;52.358;4.926;2023-11-21T11:37:06;14.85;;;7.03;;
37349;SDS011;23231;52.358;4.926;2023-11-21T11:42:13;15.32;;;7.70;;
37349;SDS011;23231;52.358;4.926;2023-11-21T11:47:15;15.95;;;8.05;;
37349;SDS011;23231;52.358;4.926;2023-11-21T11:57:35;13.13;;;7.25;;
37349;SDS011;23231;52.358;4.926;2023-11-21T12:02:36;16.30;;;7.40;;
37349;SDS011;23231;52.358;4.926;2023-11-21T12:07:43;13.40;;;7.03;;
37349;SDS011;23231;52.358;4.926;2023-11-21T12:12:44;17.15;;;9.85;;
37349;SDS011;23231;52.358;4.926;2023-11-21T12:17:46;14.95;;;7.07;;
37349;SDS011;23231;52.358;4.926;2023-11-21T12:22:47;15.32;;;7.85;;
37349;SDS011;23231;52.358;4.926;2023-11-21T12:27:49;16.70;;;8.27;;
37349;SDS011;23231;52.358;4.926;2023-11-21T12:32:53;18.85;;;8.93;;
37349;SDS011;23231;52.358;4.926;2023-11-21T12:37:55;16.65;;;8.70;;
37349;SDS011;23231;52.358;4.926;2023-11-21T12:42:59;17.05;;;9.07;;
37349;SDS011;23231;52.358;4.926;2023-11-21T12:48:01;15.63;;;8.27;;
37349;SDS011;23231;52.358;4.926;2023-11-21T12:53:08;19.25;;;9.18;;
37349;SDS011;23231;52.358;4.926;2023-11-21T12:58:10;16.83;;;8.98;;
37349;SDS011;23231;52.358;4.926;2023-11-21T13:03:13;21.42;;;10.10;;
37349;SDS011;23231;52.358;4.926;2023-11-21T13:08:19;18.50;;;9.30;;
37349;SDS011;23231;52.358;4.926;2023-11-21T13:13:22;17.88;;;9.25;;
37349;SDS011;23231;52.358;4.926;2023-11-21T13:18:24;21.02;;;11.50;;
37349;SDS011;23231;52.358;4.926;2023-11-21T13:23:26;28.67;;;10.43;;
37349;SDS011;23231;52.358;4.926;2023-11-21T13:28:26;19.08;;;10.52;;
37349;SDS011;23231;52.358;4.926;2023-11-21T13:33:31;18.93;;;10.73;;
37349;SDS011;23231;52.358;4.926;2023-11-21T13:38:33;17.70;;;9.48;;
37349;SDS011;23231;52.358;4.926;2023-11-21T13:43:35;16.67;;;8.65;;
37349;SDS011;23231;52.358;4.926;2023-11-21T13:48:37;15.02;;;8.73;;
37349;SDS011;23231;52.358;4.926;2023-11-21T13:53:50;18.83;;;7.97;;
37349;SDS011;23231;52.358;4.926;2023-11-21T13:58:52;12.18;;;7.07;;
37349;SDS011;23231;52.358;4.926;2023-11-21T14:03:53;14.30;;;7.65;;
37349;SDS011;23231;52.358;4.926;2023-11-21T14:09:00;13.15;;;7.32;;
37349;SDS011;23231;52.358;4.926;2023-11-21T14:14:05;15.87;;;7.83;;
37349;SDS011;23231;52.358;4.926;2023-11-21T14:19:05;12.10;;;6.88;;
37349;SDS011;23231;52.358;4.926;2023-11-21T14:24:15;16.55;;;8.25;;
37349;SDS011;23231;52.358;4.926;2023-11-21T14:29:18;16.25;;;9.10;;
37349;SDS011;23231;52.358;4.926;2023-11-21T14:34:23;16.23;;;9.55;;
37349;SDS011;23231;52.358;4.926;2023-11-21T14:39:24;17.05;;;9.77;;
37349;SDS011;23231;52.358;4.926;2023-11-21T14:44:27;19.63;;;11.35;;
37349;SDS011;23231;52.358;4.926;2023-11-21T14:49:32;19.30;;;10.73;;
37349;SDS011;23231;52.358;4.926;2023-11-21T14:54:48;16.75;;;9.68;;
37349;SDS011;23231;52.358;4.926;2023-11-21T14:59:57;17.98;;;10.43;;
37349;SDS011;23231;52.358;4.926;2023-11-21T15:04:58;19.65;;;9.95;;
37349;SDS011;23231;52.358;4.926;2023-11-21T15:10:02;16.52;;;9.43;;
37349;SDS011;23231;52.358;4.926;2023-11-21T15:15:03;15.07;;;8.85;;
37349;SDS011;23231;52.358;4.926;2023-11-21T15:20:04;14.65;;;9.15;;
37349;SDS011;23231;52.358;4.926;2023-11-21T15:25:06;18.02;;;10.40;;
37349;SDS011;23231;52.358;4.926;2023-11-21T15:30:10;16.00;;;9.45;;
37349;SDS011;23231;52.358;4.926;2023-11-21T15:35:10;15.98;;;9.68;;
37349;SDS011;23231;52.358;4.926;2023-11-21T15:40:14;15.05;;;9.07;;
37349;SDS011;23231;52.358;4.926;2023-11-21T15:45:16;14.80;;;8.55;;
37349;SDS011;23231;52.358;4.926;2023-11-21T15:50:21;14.80;;;9.18;;
37349;SDS011;23231;52.358;4.926;2023-11-21T15:55:21;14.57;;;8.57;;
37349;SDS011;23231;52.358;4.926;2023-11-21T16:00:21;15.35;;;8.40;;
37349;SDS011;23231;52.358;4.926;2023-11-21T16:05:24;15.05;;;8.07;;
37349;SDS011;23231;52.358;4.926;2023-11-21T16:10:25;14.93;;;8.02;;
37349;SDS011;23231;52.358;4.926;2023-11-21T16:15:26;14.35;;;8.57;;
37349;SDS011;23231;52.358;4.926;2023-11-21T16:20:26;14.73;;;8.05;;
37349;SDS011;23231;52.358;4.926;2023-11-21T16:25:27;12.75;;;6.82;;
37349;SDS011;23231;52.358;4.926;2023-11-21T16:30:27;13.15;;;6.93;;
37349;SDS011;23231;52.358;4.926;2023-11-21T16:35:27;13.30;;;6.85;;
37349;SDS011;23231;52.358;4.926;2023-11-21T16:40:28;15.55;;;7.93;;
37349;SDS011;23231;52.358;4.926;2023-11-21T16:45:29;11.35;;;5.97;;
37349;SDS011;23231;52.358;4.926;2023-11-21T16:55:44;11.20;;;6.35;;
37349;SDS011;23231;52.358;4.926;2023-11-21T17:00:45;14.68;;;6.85;;
37349;SDS011;23231;52.358;4.926;2023-11-21T17:05:47;13.27;;;7.03;;
37349;SDS011;23231;52.358;4.926;2023-11-21T17:10:47;15.75;;;6.93;;
37349;SDS011;23231;52.358;4.926;2023-11-21T17:15:52;14.73;;;6.95;;
37349;SDS011;23231;52.358;4.926;2023-11-21T17:20:54;13.30;;;7.35;;
37349;SDS011;23231;52.358;4.926;2023-11-21T17:25:54;14.45;;;7.93;;
37349;SDS011;23231;52.358;4.926;2023-11-21T17:30:58;15.82;;;7.78;;
37349;SDS011;23231;52.358;4.926;2023-11-21T17:35:59;15.02;;;7.80;;
37349;SDS011;23231;52.358;4.926;2023-11-21T17:41:01;14.10;;;7.35;;
37349;SDS011;23231;52.358;4.926;2023-11-21T17:46:01;17.00;;;8.60;;
37349;SDS011;23231;52.358;4.926;2023-11-21T17:51:02;15.23;;;8.15;;
37349;SDS011;23231;52.358;4.926;2023-11-21T17:56:05;17.63;;;8.57;;
37349;SDS011;23231;52.358;4.926;2023-11-21T18:01:09;15.77;;;8.52;;
37349;SDS011;23231;52.358;4.926;2023-11-21T18:06:10;17.10;;;9.57;;
37349;SDS011;23231;52.358;4.926;2023-11-21T18:11:15;19.73;;;10.25;;
37349;SDS011;23231;52.358;4.926;2023-11-21T18:16:18;21.50;;;9.10;;
37349;SDS011;23231;52.358;4.926;2023-11-21T18:21:19;19.25;;;9.18;;
37349;SDS011;23231;52.358;4.926;2023-11-21T18:26:23;20.67;;;9.77;;
37349;SDS011;23231;52.358;4.926;2023-11-21T18:31:25;18.02;;;9.25;;
37349;SDS011;23231;52.358;4.926;2023-11-21T18:36:26;19.55;;;9.63;;
37349;SDS011;23231;52.358;4.926;2023-11-21T18:41:32;20.48;;;9.38;;
37349;SDS011;23231;52.358;4.926;2023-11-21T18:46:39;19.80;;;9.52;;
37349;SDS011;23231;52.358;4.926;2023-11-21T18:56:44;19.98;;;9.70;;
37349;SDS011;23231;52.358;4.926;2023-11-21T19:01:46;22.45;;;10.18;;
37349;SDS011;23231;52.358;4.926;2023-11-21T19:06:47;17.13;;;9.13;;
37349;SDS011;23231;52.358;4.926;2023-11-21T19:11:47;17.08;;;10.00;;
37349;SDS011;23231;52.358;4.926;2023-11-21T19:16:48;19.90;;;9.57;;
37349;SDS011;23231;52.358;4.926;2023-11-21T19:21:57;21.88;;;11.07;;
37349;SDS011;23231;52.358;4.926;2023-11-21T19:27:00;19.77;;;10.70;;
37349;SDS011;23231;52.358;4.926;2023-11-21T19:32:02;15.60;;;9.05;;
37349;SDS011;23231;52.358;4.926;2023-11-21T19:37:06;18.17;;;9.15;;
37349;SDS011;23231;52.358;4.926;2023-11-21T19:42:08;17.15;;;8.13;;
37349;SDS011;23231;52.358;4.926;2023-11-21T19:47:08;15.77;;;8.05;;
37349;SDS011;23231;52.358;4.926;2023-11-21T19:52:14;14.07;;;7.47;;
37349;SDS011;23231;52.358;4.926;2023-11-21T19:57:17;14.98;;;7.65;;
37349;SDS011;23231;52.358;4.926;2023-11-21T20:02:18;15.55;;;7.20;;
37349;SDS011;23231;52.358;4.926;2023-11-21T20:07:22;13.38;;;7.25;;
37349;SDS011;23231;52.358;4.926;2023-11-21T20:12:26;14.80;;;7.68;;
37349;SDS011;23231;52.358;4.926;2023-11-21T20:17:32;13.07;;;6.68;;
37349;SDS011;23231;52.358;4.926;2023-11-21T20:22:42;14.43;;;7.65;;
37349;SDS011;23231;52.358;4.926;2023-11-21T20:27:46;16.13;;;7.53;;
37349;SDS011;23231;52.358;4.926;2023-11-21T20:32:48;15.32;;;7.63;;
37349;SDS011;23231;52.358;4.926;2023-11-21T20:37:57;15.13;;;7.18;;
37349;SDS011;23231;52.358;4.926;2023-11-21T20:43:12;13.82;;;7.13;;
37349;SDS011;23231;52.358;4.926;2023-11-21T20:48:20;15.45;;;7.30;;
37349;SDS011;23231;52.358;4.926;2023-11-21T20:53:23;13.77;;;7.13;;
37349;SDS011;23231;52.358;4.926;2023-11-21T20:58:29;15.63;;;6.82;;
37349;SDS011;23231;52.358;4.926;2023-11-21T21:03:31;13.63;;;6.53;;
37349;SDS011;23231;52.358;4.926;2023-11-21T21:08:33;14.52;;;7.20;;
37349;SDS011;23231;52.358;4.926;2023-11-21T21:13:34;12.65;;;7.45;;
37349;SDS011;23231;52.358;4.926;2023-11-21T21:18:35;13.13;;;7.18;;
37349;SDS011;23231;52.358;4.926;2023-11-21T21:23:41;15.02;;;7.18;;
37349;SDS011;23231;52.358;4.926;2023-11-21T21:28:47;17.55;;;8.02;;
37349;SDS011;23231;52.358;4.926;2023-11-21T21:33:48;15.00;;;8.50;;
37349;SDS011;23231;52.358;4.926;2023-11-21T21:38:49;17.50;;;8.57;;
37349;SDS011;23231;52.358;4.926;2023-11-21T21:43:51;17.52;;;9.07;;
37349;SDS011;23231;52.358;4.926;2023-11-21T21:48:57;19.65;;;9.02;;
37349;SDS011;23231;52.358;4.926;2023-11-21T21:53:57;13.35;;;7.43;;
37349;SDS011;23231;52.358;4.926;2023-11-21T21:59:00;14.32;;;7.30;;
37349;SDS011;23231;52.358;4.926;2023-11-21T22:04:01;17.27;;;7.78;;
37349;SDS011;23231;52.358;4.926;2023-11-21T22:09:05;13.05;;;6.75;;
37349;SDS011;23231;52.358;4.926;2023-11-21T22:14:12;14.05;;;7.38;;
37349;SDS011;23231;52.358;4.926;2023-11-21T22:19:20;13.65;;;7.18;;
37349;SDS011;23231;52.358;4.926;2023-11-21T22:24:27;12.95;;;7.20;;
37349;SDS011;23231;52.358;4.926;2023-11-21T22:29:35;11.95;;;6.57;;
37349;SDS011;23231;52.358;4.926;2023-11-21T22:34:37;12.25;;;6.75;;
37349;SDS011;23231;52.358;4.926;2023-11-21T22:39:48;14.17;;;7.87;;
37349;SDS011;23231;52.358;4.926;2023-11-21T22:44:58;14.87;;;8.00;;
37349;SDS011;23231;52.358;4.926;2023-11-21T22:50:06;12.45;;;7.65;;
37349;SDS011;23231;52.358;4.926;2023-11-21T22:55:11;15.82;;;8.25;;
37349;SDS011;23231;52.358;4.926;2023-11-21T23:00:18;15.63;;;8.60;;
37349;SDS011;23231;52.358;4.926;2023-11-21T23:05:21;17.40;;;7.97;;
37349;SDS011;23231;52.358;4.926;2023-11-21T23:10:29;16.77;;;8.68;;
37349;SDS011;23231;52.358;4.926;2023-11-21T23:15:30;13.73;;;7.55;;
37349;SDS011;23231;52.358;4.926;2023-11-21T23:20:34;14.05;;;7.93;;
37349;SDS011;23231;52.358;4.926;2023-11-21T23:25:37;12.73;;;7.47;;
37349;SDS011;23231;52.358;4.926;2023-11-21T23:30:47;14.48;;;8.10;;
37349;SDS011;23231;52.358;4.926;2023-11-21T23:36:00;14.70;;;8.13;;
37349;SDS011;23231;52.358;4.926;2023-11-21T23:41:06;18.05;;;8.27;;
37349;SDS011;23231;52.358;4.926;2023-11-21T23:46:10;14.43;;;7.88;;
37349;SDS011;23231;52.358;4.926;2023-11-21T23:51:19;13.18;;;7.20;;
37349;SDS011;23231;52.358;4.926;2023-11-21T23:56:24;11.82;;;7.13;;
